Aj — WDI8684 — position and weather

sailwx.info

Track history (hours):
 
Tides and Currents Weather Stations Pressure Air Temp Water Temp Dewpoint Dewpoint Depression Visibility Wind Speed Wind Dir Waves Ship Positions

Aj

Owner: Harley Marine Services, Inc, Seattle, WA. More information available from US FCC via Universal Licensing System and Coast Guard Vessel Documentation Center.

Last reported at 2017-Oct-18 18:30 UTC. Time now 2017-Oct-18 18:50 UTC.
Position N 47°34' W 122°21'.

Length 30 m; draft 3.8 m.

Type: Tow > 200 m length. MMSI: 367741120.

Date/timePositionNaut miles runAvg speedWind from/ knotsBaromVisibWave heightAir tempDewpointWater temp
2017-Oct-18 18:30N 47°34' W 122°21'0 0.0
2017-Oct-18 18:00N 47°34' W 122°21'0 0.0
2017-Oct-18 17:30N 47°34' W 122°21'0 0.0
2017-Oct-18 17:00N 47°34' W 122°21'0 0.0
2017-Oct-18 16:30N 47°34' W 122°21'0 0.0
2017-Oct-18 16:00N 47°34' W 122°21'0 0.1
2017-Oct-18 15:30N 47°34' W 122°21'0 0.0
2017-Oct-18 15:00N 47°34' W 122°21'0 0.0
2017-Oct-18 14:00N 47°34' W 122°21'0 0.0
2017-Oct-18 13:30N 47°34' W 122°21'0 0.0
2017-Oct-18 13:00N 47°34' W 122°21'0 0.0
2017-Oct-18 12:30N 47°34' W 122°21'0 0.0
2017-Oct-18 12:00N 47°34' W 122°21'0 0.0
2017-Oct-18 11:30N 47°34' W 122°21'0 0.0
2017-Oct-18 11:00N 47°34' W 122°21'0 0.0
2017-Oct-18 10:30N 47°34' W 122°21'0 0.0
2017-Oct-18 10:00N 47°34' W 122°21'0 0.0
2017-Oct-18 09:30N 47°34' W 122°21'0 0.0
2017-Oct-18 09:00N 47°34' W 122°21'0 0.0
2017-Oct-18 08:30N 47°34' W 122°21'0 0.0
2017-Oct-18 08:00N 47°34' W 122°21'0 0.0
2017-Oct-18 07:30N 47°34' W 122°21'0 0.0
2017-Oct-18 07:00N 47°34' W 122°21'0 0.0
2017-Oct-18 06:30N 47°34' W 122°21'0 0.0
2017-Oct-18 06:00N 47°34' W 122°21'0 0.0
2017-Oct-18 05:30N 47°34' W 122°21'0 0.0
2017-Oct-18 05:00N 47°34' W 122°21'0 0.0
2017-Oct-18 04:30N 47°34' W 122°21'0 0.0
2017-Oct-18 04:00N 47°34' W 122°21'0 0.0
2017-Oct-18 03:30N 47°34' W 122°21'0 0.0
2017-Oct-18 03:00N 47°34' W 122°21'0 0.0
2017-Oct-18 02:30N 47°34' W 122°21'0 0.0
2017-Oct-18 02:00N 47°34' W 122°21'0 0.0
2017-Oct-18 01:30N 47°34' W 122°21'0 0.0
2017-Oct-18 01:00N 47°34' W 122°21'0 0.0
2017-Oct-18 00:30N 47°34' W 122°21'0 0.1
2017-Oct-18 00:01N 47°34' W 122°21'0 0.1
2017-Oct-17 23:30N 47°34' W 122°21'0 0.0
2017-Oct-17 23:00N 47°34' W 122°21'0 0.0
2017-Oct-17 22:30N 47°34' W 122°21'0 0.0
2017-Oct-17 22:00N 47°34' W 122°21'0 0.0
2017-Oct-17 21:30N 47°34' W 122°21'0 0.0
2017-Oct-17 21:00N 47°34' W 122°21'0 0.0
2017-Oct-17 20:30N 47°34' W 122°21'0 0.0
2017-Oct-17 20:00N 47°34' W 122°21'0 0.0
2017-Oct-17 19:30N 47°34' W 122°21'1 1.7
2017-Oct-17 19:00N 47°35' W 122°21'1 1.7
2017-Oct-17 18:30N 47°36' W 122°22'2 3.0
2017-Oct-17 18:00N 47°36' W 122°24'3 5.1
2017-Oct-17 17:31N 47°34' W 122°26'3 5.5
2017-Oct-17 17:01N 47°31' W 122°25'3 5.8
2017-Oct-17 16:31N 47°28' W 122°24'3 5.8
2017-Oct-17 16:01N 47°26' W 122°23'3 5.7
2017-Oct-17 15:30N 47°23' W 122°21'3 5.6
2017-Oct-17 15:00N 47°21' W 122°24'3 5.7
2017-Oct-17 14:30N 47°19' W 122°27'2 4.2
2017-Oct-17 14:00N 47°17' W 122°26'1 2.4
2017-Oct-17 13:30N 47°17' W 122°24'1 0.6
2017-Oct-17 12:37N 47°17' W 122°23'0 0.0
2017-Oct-17 12:18N 47°17' W 122°23'0 0.0
2017-Oct-17 11:53N 47°17' W 122°23'0 0.0
2017-Oct-17 11:25N 47°17' W 122°23'0 0.0
2017-Oct-17 11:00N 47°17' W 122°23'0 0.0
2017-Oct-17 10:26N 47°17' W 122°23'0 0.0
2017-Oct-17 09:58N 47°17' W 122°23'0 0.0
2017-Oct-17 09:11N 47°17' W 122°23'0 0.0
2017-Oct-17 09:00N 47°17' W 122°23'0 0.0
2017-Oct-17 08:30N 47°17' W 122°23'0 0.0
2017-Oct-17 08:00N 47°17' W 122°23'0 0.0
2017-Oct-17 07:26N 47°17' W 122°23'0 0.0
2017-Oct-17 07:00N 47°17' W 122°23'0 0.0
2017-Oct-17 06:30N 47°17' W 122°23'0 0.0
2017-Oct-17 06:00N 47°17' W 122°23'0 0.0
2017-Oct-17 05:29N 47°17' W 122°23'0 0.0
2017-Oct-17 04:56N 47°17' W 122°23'0 0.0
2017-Oct-17 04:28N 47°17' W 122°23'0 0.0
2017-Oct-17 04:00N 47°17' W 122°23'0 0.0
2017-Oct-17 03:14N 47°17' W 122°23'0 0.0
2017-Oct-17 02:59N 47°17' W 122°23'0 0.0
2017-Oct-17 02:30N 47°17' W 122°23'0 0.0
2017-Oct-17 01:04N 47°17' W 122°23'0 0.0
2017-Oct-17 00:51N 47°17' W 122°23'0 0.1
2017-Oct-17 00:16N 47°17' W 122°23'1 2.5
2017-Oct-16 23:58N 47°17' W 122°24'1 2.3
2017-Oct-16 23:30N 47°17' W 122°26'3 5.4
2017-Oct-16 23:00N 47°20' W 122°28'4 7.0
2017-Oct-16 22:30N 47°22' W 122°24'3 5.6
2017-Oct-16 22:00N 47°25' W 122°23'4 7.3
2017-Oct-16 21:30N 47°28' W 122°25'4 7.1
2017-Oct-16 21:00N 47°32' W 122°27'4 7.0
2017-Oct-16 20:31N 47°35' W 122°26'3 6.2
2017-Oct-16 20:00N 47°36' W 122°21'1 2.0
2017-Oct-16 19:30N 47°35' W 122°21'0 0.1
2017-Oct-16 19:00N 47°35' W 122°21'0 0.1
2017-Oct-16 18:30N 47°35' W 122°21'0 0.0
2017-Oct-16 18:00N 47°35' W 122°21'0 0.0
2017-Oct-16 17:30N 47°35' W 122°21'0 0.0
2017-Oct-16 17:00N 47°35' W 122°21'0 0.0
2017-Oct-16 16:30N 47°35' W 122°21'0 0.0
2017-Oct-16 16:00N 47°35' W 122°21'0 0.0
2017-Oct-16 15:30N 47°35' W 122°21'0 0.0
2017-Oct-16 15:00N 47°35' W 122°21'0 0.0
2017-Oct-16 14:30N 47°35' W 122°21'1 1.0
2017-Oct-16 13:30N 47°36' W 122°22'1 1.2
2017-Oct-16 13:00N 47°35' W 122°22'0 0.1
2017-Oct-16 12:30N 47°35' W 122°23'0 0.1
2017-Oct-16 12:00N 47°35' W 122°22'0 0.0
2017-Oct-16 11:30N 47°35' W 122°22'0 0.0
2017-Oct-16 11:00N 47°35' W 122°22'0 0.0
2017-Oct-16 10:30N 47°35' W 122°22'0 0.0
2017-Oct-16 10:00N 47°35' W 122°22'0 0.0
2017-Oct-16 09:30N 47°35' W 122°22'0 0.0
2017-Oct-16 09:00N 47°35' W 122°22'0 0.0
2017-Oct-16 08:30N 47°35' W 122°22'0 0.0
2017-Oct-16 08:00N 47°35' W 122°22'0 0.0
2017-Oct-16 07:30N 47°35' W 122°22'0 0.1
2017-Oct-16 07:00N 47°35' W 122°22'0 0.0
2017-Oct-16 06:30N 47°35' W 122°22'0 0.0
2017-Oct-16 06:00N 47°35' W 122°22'0 0.0
2017-Oct-16 05:30N 47°35' W 122°22'0 0.0
2017-Oct-16 05:00N 47°35' W 122°22'0 0.0
2017-Oct-16 04:30N 47°35' W 122°22'0 0.1
2017-Oct-16 04:00N 47°35' W 122°22'0 0.1
2017-Oct-16 03:31N 47°35' W 122°22'0 0.1
2017-Oct-16 03:00N 47°35' W 122°22'0 0.0
2017-Oct-16 02:30N 47°35' W 122°22'0 0.1
2017-Oct-16 02:00N 47°35' W 122°22'0 0.0
2017-Oct-16 01:30N 47°35' W 122°22'0 0.0
2017-Oct-16 01:00N 47°35' W 122°22'0 0.0
2017-Oct-16 00:30N 47°35' W 122°22'0 0.1
2017-Oct-16 00:00N 47°35' W 122°22'0 0.0
2017-Oct-15 23:30N 47°35' W 122°22'0 0.1
2017-Oct-15 23:00N 47°35' W 122°22'0 0.0
2017-Oct-15 22:30N 47°35' W 122°22'0 0.1
2017-Oct-15 22:00N 47°35' W 122°22'0 0.0
2017-Oct-15 21:30N 47°35' W 122°22'0 0.0
2017-Oct-15 21:00N 47°35' W 122°22'0 0.0
2017-Oct-15 20:30N 47°35' W 122°22'0 0.0
2017-Oct-15 20:00N 47°35' W 122°22'0 0.0
2017-Oct-15 19:30N 47°35' W 122°22'0 0.0
2017-Oct-15 19:00N 47°35' W 122°22'0 0.0
2017-Oct-15 18:30N 47°35' W 122°22'0 0.0
2017-Oct-15 18:00N 47°35' W 122°22'0 0.0
2017-Oct-15 17:30N 47°35' W 122°22'0 0.1
2017-Oct-15 17:00N 47°35' W 122°22'0 0.0
2017-Oct-15 16:30N 47°35' W 122°22'0 0.0
2017-Oct-15 16:00N 47°35' W 122°22'0 0.0
2017-Oct-15 15:30N 47°35' W 122°22'0 0.0
2017-Oct-15 15:00N 47°35' W 122°22'0 0.0
2017-Oct-15 14:00N 47°35' W 122°22'0 0.0
2017-Oct-15 13:30N 47°35' W 122°22'0 0.1
2017-Oct-15 13:00N 47°35' W 122°22'0 0.1
2017-Oct-15 12:30N 47°35' W 122°22'0 0.1
2017-Oct-15 12:00N 47°35' W 122°22'0 0.1
2017-Oct-15 11:30N 47°35' W 122°23'0 0.0
2017-Oct-15 11:00N 47°35' W 122°23'0 0.0
2017-Oct-15 10:30N 47°35' W 122°23'0 0.1
2017-Oct-15 10:00N 47°35' W 122°22'0 0.1
2017-Oct-15 09:30N 47°35' W 122°23'0 0.1
2017-Oct-15 09:00N 47°35' W 122°23'0 0.1
2017-Oct-15 08:30N 47°35' W 122°23'0 0.0
2017-Oct-15 08:00N 47°35' W 122°23'0 0.1
2017-Oct-15 07:30N 47°35' W 122°22'0 0.0
2017-Oct-15 07:00N 47°35' W 122°22'0 0.0
2017-Oct-15 06:30N 47°35' W 122°22'0 0.0
2017-Oct-15 06:00N 47°35' W 122°22'0 0.0
2017-Oct-15 05:30N 47°35' W 122°22'0 0.0
2017-Oct-15 05:00N 47°35' W 122°22'0 0.1
2017-Oct-15 04:30N 47°35' W 122°22'0 0.0
2017-Oct-15 04:00N 47°35' W 122°22'0 0.1
2017-Oct-15 03:30N 47°35' W 122°23'0 0.1
2017-Oct-15 03:00N 47°35' W 122°22'0 0.1
2017-Oct-15 02:30N 47°35' W 122°22'0 0.0
2017-Oct-15 02:00N 47°35' W 122°22'0 0.0
2017-Oct-15 01:30N 47°35' W 122°22'0 0.8
2017-Oct-15 01:00N 47°35' W 122°22'1 1.5
2017-Oct-15 00:30N 47°35' W 122°21'0 0.2
2017-Oct-15 00:00N 47°35' W 122°21'0 0.0
2017-Oct-14 23:30N 47°35' W 122°21'0 0.0
2017-Oct-14 23:00N 47°35' W 122°21'0 0.0
2017-Oct-14 22:30N 47°35' W 122°21'0 0.0
2017-Oct-14 22:00N 47°35' W 122°21'1 2.1
2017-Oct-14 21:30N 47°34' W 122°21'0 0.0
2017-Oct-14 21:00N 47°34' W 122°21'0 0.0
2017-Oct-14 20:30N 47°34' W 122°21'0 0.0
2017-Oct-14 20:00N 47°34' W 122°21'0 0.0
2017-Oct-14 19:30N 47°34' W 122°21'0 0.0
2017-Oct-14 19:00N 47°34' W 122°21'0 0.0
2017-Oct-14 18:30N 47°34' W 122°21'0 0.0
2017-Oct-14 18:00N 47°34' W 122°21'0 0.0
2017-Oct-14 17:30N 47°34' W 122°21'0 0.0
2017-Oct-14 17:00N 47°34' W 122°21'0 0.0
2017-Oct-14 16:30N 47°34' W 122°21'1 2.1
2017-Oct-14 16:01N 47°35' W 122°21'0 0.0
2017-Oct-14 15:30N 47°35' W 122°21'0 0.0
2017-Oct-14 15:00N 47°35' W 122°21'0 0.0
2017-Oct-14 14:30N 47°35' W 122°21'0 0.0
2017-Oct-14 14:00N 47°35' W 122°21'0 0.0
2017-Oct-14 13:30N 47°35' W 122°21'0 0.0
2017-Oct-14 13:00N 47°35' W 122°21'0 0.0
2017-Oct-14 12:30N 47°35' W 122°21'0 0.0
2017-Oct-14 12:00N 47°35' W 122°21'0 0.0
2017-Oct-14 11:30N 47°35' W 122°21'0 0.0
2017-Oct-14 11:00N 47°35' W 122°21'1 1.0
2017-Oct-14 10:31N 47°36' W 122°21'0 1.0
2017-Oct-14 10:00N 47°36' W 122°22'3 5.4
2017-Oct-14 09:31N 47°37' W 122°26'3 5.4
2017-Oct-14 09:01N 47°39' W 122°28'3 5.4
2017-Oct-14 08:30N 47°42' W 122°28'3 5.7
2017-Oct-14 08:00N 47°45' W 122°27'3 5.3
2017-Oct-14 07:30N 47°47' W 122°27'3 5.6
2017-Oct-14 07:00N 47°50' W 122°28'3 5.8
2017-Oct-14 06:30N 47°53' W 122°29'3 5.9
2017-Oct-14 06:00N 47°55' W 122°31'4 8.0
2017-Oct-14 05:29N 47°58' W 122°36'4 7.9
2017-Oct-14 05:00N 48°02' W 122°39'4 7.7
2017-Oct-14 04:29N 48°05' W 122°40'8 8.5
2017-Oct-14 03:31N 48°11' W 122°49'0 8.5
2017-Oct-14 03:28N 48°11' W 122°50'4 7.9
2017-Oct-14 03:00N 48°11' W 122°55'4 7.4
2017-Oct-14 02:30N 48°12' W 123°01'4 7.5
2017-Oct-14 01:59N 48°12' W 123°06'4 7.4
2017-Oct-14 01:24N 48°11' W 123°13'2 6.2
2017-Oct-14 01:00N 48°10' W 123°16'3 6.2
2017-Oct-14 00:29N 48°09' W 123°21'3 1.1
2017-Oct-13 21:49N 48°08' W 123°25'0 0.0
2017-Oct-13 21:22N 48°08' W 123°25'0 0.1
2017-Oct-13 20:58N 48°08' W 123°25'0 0.1
2017-Oct-13 20:25N 48°08' W 123°25'0 0.1
2017-Oct-13 19:58N 48°08' W 123°25'0 0.1
2017-Oct-13 19:25N 48°08' W 123°25'0 0.0
2017-Oct-13 18:58N 48°08' W 123°25'0 0.0
2017-Oct-13 18:28N 48°08' W 123°25'0 0.0
2017-Oct-13 17:58N 48°08' W 123°25'0 0.0
2017-Oct-13 17:28N 48°08' W 123°25'0 0.1
2017-Oct-13 16:58N 48°08' W 123°25'0 0.0
2017-Oct-13 16:22N 48°08' W 123°25'0 0.0
2017-Oct-13 15:52N 48°08' W 123°25'0 0.0
2017-Oct-13 15:28N 48°08' W 123°25'0 0.1
2017-Oct-13 14:58N 48°08' W 123°25'0 0.0
2017-Oct-13 14:22N 48°08' W 123°25'0 0.0
2017-Oct-13 13:58N 48°08' W 123°25'0 0.0
2017-Oct-13 13:30N 48°08' W 123°25'0 0.1
2017-Oct-13 13:00N 48°08' W 123°25'1 1.1
2017-Oct-13 12:31N 48°08' W 123°24'2 3.5
2017-Oct-13 12:00N 48°09' W 123°22'4 7.8
2017-Oct-13 11:29N 48°10' W 123°16'4 8.0
2017-Oct-13 11:00N 48°12' W 123°11'4 7.5
2017-Oct-13 10:28N 48°13' W 123°05'4 7.9
2017-Oct-13 09:59N 48°13' W 122°60'4 7.9
2017-Oct-13 09:29N 48°12' W 122°54'8 8.5
2017-Oct-13 08:29N 48°09' W 122°42'4 8.3
2017-Oct-13 08:00N 48°06' W 122°38'4 8.3
2017-Oct-13 07:29N 48°01' W 122°37'4 7.8
2017-Oct-13 07:00N 47°58' W 122°34'4 7.7
2017-Oct-13 06:30N 47°56' W 122°30'3 6.9
2017-Oct-13 06:00N 47°53' W 122°28'4 7.4
2017-Oct-13 05:30N 47°49' W 122°27'4 7.3
2017-Oct-13 05:00N 47°45' W 122°26'4 7.1
2017-Oct-13 04:30N 47°42' W 122°27'3 7.0
2017-Oct-13 04:00N 47°38' W 122°27'4 7.2
2017-Oct-13 03:30N 47°35' W 122°26'3 6.8
2017-Oct-13 03:00N 47°31' W 122°25'3 6.8
2017-Oct-13 02:30N 47°28' W 122°24'3 7.0
2017-Oct-13 02:00N 47°25' W 122°22'3 5.8
2017-Oct-13 01:30N 47°22' W 122°22'3 6.7
2017-Oct-13 01:00N 47°20' W 122°26'2 5.0
2017-Oct-13 00:30N 47°17' W 122°27'1 1.2
2017-Oct-13 00:00N 47°17' W 122°26'1 2.3
2017-Oct-12 23:30N 47°16' W 122°25'0 0.0
2017-Oct-12 23:00N 47°16' W 122°25'0 0.0
2017-Oct-12 22:30N 47°16' W 122°25'0 0.0
2017-Oct-12 22:00N 47°16' W 122°25'0 0.0
2017-Oct-12 21:30N 47°16' W 122°25'0 0.0
2017-Oct-12 21:00N 47°16' W 122°25'0 0.0
2017-Oct-12 20:30N 47°16' W 122°25'0 0.0
2017-Oct-12 20:00N 47°16' W 122°25'0 0.0
2017-Oct-12 19:30N 47°16' W 122°25'0 0.0
2017-Oct-12 19:00N 47°16' W 122°25'0 0.0
2017-Oct-12 18:30N 47°16' W 122°25'0 0.0
2017-Oct-12 18:00N 47°16' W 122°25'0 0.0
2017-Oct-12 17:30N 47°16' W 122°25'0 0.0
2017-Oct-12 17:00N 47°16' W 122°25'0 0.0
2017-Oct-12 16:30N 47°16' W 122°25'0 0.0
2017-Oct-12 16:00N 47°16' W 122°25'0 0.0
2017-Oct-12 15:30N 47°16' W 122°25'0 0.0
2017-Oct-12 15:00N 47°16' W 122°25'0 0.0
2017-Oct-12 14:31N 47°16' W 122°25'0 0.0
2017-Oct-12 14:00N 47°16' W 122°25'0 0.0
2017-Oct-12 13:30N 47°16' W 122°25'0 0.1
2017-Oct-12 13:00N 47°16' W 122°25'0 0.9
2017-Oct-12 12:30N 47°16' W 122°25'1 2.1
2017-Oct-12 12:00N 47°17' W 122°24'0 0.8
2017-Oct-12 11:31N 47°17' W 122°23'0 0.0
2017-Oct-12 11:00N 47°17' W 122°23'0 0.0
2017-Oct-12 10:31N 47°17' W 122°23'0 0.0
2017-Oct-12 10:00N 47°17' W 122°23'0 0.0
2017-Oct-12 09:30N 47°17' W 122°23'0 0.0
2017-Oct-12 09:00N 47°17' W 122°23'0 0.0
2017-Oct-12 08:30N 47°17' W 122°23'0 0.0
2017-Oct-12 08:00N 47°17' W 122°23'0 0.5
2017-Oct-12 07:30N 47°17' W 122°24'1 2.9
2017-Oct-12 07:00N 47°17' W 122°26'1 1.2
2017-Oct-12 06:30N 47°18' W 122°26'3 5.0
2017-Oct-12 06:00N 47°20' W 122°27'3 6.3
2017-Oct-12 05:30N 47°22' W 122°24'2 4.8
2017-Oct-12 05:00N 47°24' W 122°23'3 6.4
2017-Oct-12 04:30N 47°27' W 122°25'3 6.5
2017-Oct-12 04:00N 47°30' W 122°26'3 6.2
2017-Oct-12 03:30N 47°33' W 122°27'3 6.3
2017-Oct-12 03:00N 47°36' W 122°24'2 4.3
2017-Oct-12 02:30N 47°36' W 122°21'0 0.5
2017-Oct-12 01:58N 47°36' W 122°21'1 2.9
2017-Oct-12 01:30N 47°34' W 122°21'1 2.3
2017-Oct-12 00:56N 47°36' W 122°21'0 0.0
2017-Oct-12 00:29N 47°36' W 122°21'0 0.0
2017-Oct-11 23:58N 47°36' W 122°21'0 0.0
2017-Oct-11 23:29N 47°36' W 122°21'0 0.0
2017-Oct-11 22:59N 47°36' W 122°21'0 0.0
2017-Oct-11 22:29N 47°36' W 122°21'0 0.0
2017-Oct-11 21:58N 47°36' W 122°21'0 0.0
2017-Oct-11 21:29N 47°36' W 122°21'0 0.0
2017-Oct-11 20:58N 47°36' W 122°21'0 0.0
2017-Oct-11 20:28N 47°36' W 122°21'0 0.0
2017-Oct-11 19:58N 47°36' W 122°21'0 0.0
2017-Oct-11 19:28N 47°36' W 122°21'0 0.0
2017-Oct-11 19:00N 47°36' W 122°21'1 1.4
2017-Oct-11 18:30N 47°35' W 122°21'1 1.4
2017-Oct-11 18:00N 47°36' W 122°21'1 1.8
2017-Oct-11 17:30N 47°36' W 122°22'2 4.0
2017-Oct-11 17:00N 47°35' W 122°25'26 1.5
2017-Oct-11 00:00N 48°00' W 122°38'3 6.6
2017-Oct-10 23:29N 48°03' W 122°39'4 6.4
2017-Oct-10 22:47N 48°07' W 122°42'3 6.4
2017-Oct-10 22:17N 48°10' W 122°46'2 5.2
2017-Oct-10 21:58N 48°11' W 122°47'2 4.8
2017-Oct-10 21:28N 48°13' W 122°49'3 5.4
2017-Oct-10 20:50N 48°16' W 122°48'2 5.7
2017-Oct-10 20:28N 48°18' W 122°47'3 6.5
2017-Oct-10 20:00N 48°21' W 122°46'4 7.2
2017-Oct-10 19:30N 48°25' W 122°45'4 7.0
2017-Oct-10 19:00N 48°28' W 122°45'3 6.7
2017-Oct-10 18:30N 48°31' W 122°42'3 6.5
2017-Oct-10 18:00N 48°34' W 122°40'3 6.0
2017-Oct-10 17:30N 48°37' W 122°38'3 5.7
2017-Oct-10 17:00N 48°37' W 122°34'1 1.8
2017-Oct-10 16:30N 48°37' W 122°33'0 0.0
2017-Oct-10 16:00N 48°37' W 122°33'0 0.1
2017-Oct-10 15:30N 48°37' W 122°33'0 0.0
2017-Oct-10 14:00N 48°37' W 122°33'0 0.0
2017-Oct-10 13:18N 48°37' W 122°33'0 0.0
2017-Oct-10 12:54N 48°37' W 122°33'0 0.0
2017-Oct-10 12:30N 48°37' W 122°33'0 0.1
2017-Oct-10 11:51N 48°37' W 122°33'0 0.2
2017-Oct-10 11:30N 48°37' W 122°33'0 0.1
2017-Oct-10 11:00N 48°37' W 122°33'0 0.7
2017-Oct-10 10:30N 48°37' W 122°33'2 4.6
2017-Oct-10 10:00N 48°35' W 122°34'2 4.5
2017-Oct-10 09:30N 48°33' W 122°34'2 3.2
2017-Oct-10 09:00N 48°31' W 122°35'0 0.1
2017-Oct-10 08:30N 48°31' W 122°35'0 0.0
2017-Oct-10 08:00N 48°31' W 122°35'0 0.0
2017-Oct-10 07:30N 48°31' W 122°35'0 0.0
2017-Oct-10 07:00N 48°31' W 122°35'0 0.0
2017-Oct-10 06:30N 48°31' W 122°35'0 0.0
2017-Oct-10 06:00N 48°31' W 122°35'0 0.1
2017-Oct-10 05:30N 48°31' W 122°35'0 0.0
2017-Oct-10 05:00N 48°31' W 122°35'0 0.0
2017-Oct-10 04:30N 48°31' W 122°35'0 0.0
2017-Oct-10 04:00N 48°31' W 122°35'0 0.1
2017-Oct-10 03:30N 48°31' W 122°35'0 0.0
2017-Oct-10 03:00N 48°31' W 122°35'0 0.0
2017-Oct-10 02:30N 48°31' W 122°35'0 0.1
2017-Oct-10 02:00N 48°31' W 122°35'0 0.2
2017-Oct-10 01:30N 48°31' W 122°35'0 0.1
2017-Oct-10 01:00N 48°31' W 122°35'1 1.4
2017-Oct-10 00:30N 48°32' W 122°35'0 0.6
2017-Oct-10 00:00N 48°32' W 122°35'0 0.6
2017-Oct-09 23:30N 48°31' W 122°35'2 4.8
2017-Oct-09 23:01N 48°31' W 122°39'3 5.0
2017-Oct-09 22:30N 48°31' W 122°43'2 4.6
2017-Oct-09 22:00N 48°29' W 122°44'2 3.5
2017-Oct-09 21:30N 48°27' W 122°44'2 4.2
2017-Oct-09 21:00N 48°25' W 122°44'7 4.3
2017-Oct-09 19:29N 48°19' W 122°46'2 4.0
2017-Oct-09 18:56N 48°17' W 122°47'2 4.9
2017-Oct-09 18:30N 48°15' W 122°48'10 7.3
2017-Oct-09 17:11N 48°07' W 122°39'2 6.6
2017-Oct-09 16:52N 48°05' W 122°38'3 6.9
2017-Oct-09 16:27N 48°02' W 122°37'3 6.1
2017-Oct-09 15:59N 47°59' W 122°36'3 6.8
2017-Oct-09 15:30N 47°57' W 122°32'3 5.9
2017-Oct-09 15:00N 47°55' W 122°29'3 5.8
2017-Oct-09 14:30N 47°52' W 122°28'3 6.4
2017-Oct-09 14:00N 47°49' W 122°27'3 6.6
2017-Oct-09 13:30N 47°46' W 122°26'3 6.3
2017-Oct-09 13:00N 47°43' W 122°26'3 5.9
2017-Oct-09 12:30N 47°40' W 122°27'3 6.1
2017-Oct-09 12:00N 47°37' W 122°27'3 6.1
2017-Oct-09 11:31N 47°34' W 122°26'3 5.6
2017-Oct-09 11:00N 47°31' W 122°25'3 5.9
2017-Oct-09 10:30N 47°28' W 122°24'3 6.5
2017-Oct-09 10:00N 47°25' W 122°22'3 5.6
2017-Oct-09 09:30N 47°22' W 122°21'3 6.4
2017-Oct-09 09:00N 47°20' W 122°25'3 5.8
2017-Oct-09 08:30N 47°18' W 122°27'1 2.4
2017-Oct-09 08:00N 47°17' W 122°25'1 2.0
2017-Oct-09 07:27N 47°17' W 122°24'0 1.0
2017-Oct-09 07:00N 47°17' W 122°23'0 0.1
2017-Oct-09 06:30N 47°17' W 122°23'0 0.1
2017-Oct-09 06:00N 47°17' W 122°23'0 0.0
2017-Oct-09 05:30N 47°17' W 122°23'0 0.0
2017-Oct-09 05:00N 47°17' W 122°23'0 0.0
2017-Oct-09 04:30N 47°17' W 122°23'0 0.0
2017-Oct-09 04:00N 47°17' W 122°23'0 0.1
2017-Oct-09 03:30N 47°17' W 122°23'0 0.1
2017-Oct-09 03:00N 47°17' W 122°23'0 0.0
2017-Oct-09 02:30N 47°17' W 122°23'0 0.1
2017-Oct-09 02:00N 47°17' W 122°23'0 0.0
2017-Oct-09 01:30N 47°17' W 122°23'0 0.1
2017-Oct-09 01:00N 47°17' W 122°23'1 1.0
2017-Oct-09 00:30N 47°17' W 122°24'2 3.4
2017-Oct-09 00:00N 47°17' W 122°26'1 3.0
2017-Oct-08 23:30N 47°19' W 122°28'4 7.0
2017-Oct-08 23:00N 47°21' W 122°25'3 6.1
2017-Oct-08 22:30N 47°24' W 122°23'3 7.0
2017-Oct-08 22:00N 47°27' W 122°25'3 6.8
2017-Oct-08 21:31N 47°30' W 122°26'3 6.9
2017-Oct-08 21:00N 47°34' W 122°26'3 5.8
2017-Oct-08 20:30N 47°36' W 122°23'1 1.3
2017-Oct-08 20:00N 47°35' W 122°22'0 0.1
2017-Oct-08 19:30N 47°35' W 122°22'0 0.0
2017-Oct-08 19:00N 47°35' W 122°22'0 0.1
2017-Oct-08 18:30N 47°35' W 122°22'  
Track history (hours):
 
Tides and Currents Weather Stations Pressure Air Temp Water Temp Dewpoint Dewpoint Depression Visibility Wind Speed Wind Dir Waves Ship Positions

Aj

Owner: Harley Marine Services, Inc, Seattle, WA. More information available from US FCC via Universal Licensing System and Coast Guard Vessel Documentation Center.

Last reported at 2017-Oct-18 18:30 UTC. Time now 2017-Oct-18 18:50 UTC.
Position N 47°34' W 122°21'.

Length 30 m; draft 3.8 m.

Type: Tow > 200 m length. MMSI: 367741120.

Date/timePositionNaut miles runAvg speedWind from/ knotsBaromVisibWave heightAir tempDewpointWater temp
2017-Oct-18 18:30N 47°34' W 122°21'0 0.0
2017-Oct-18 18:00N 47°34' W 122°21'0 0.0
2017-Oct-18 17:30N 47°34' W 122°21'0 0.0
2017-Oct-18 17:00N 47°34' W 122°21'0 0.0
2017-Oct-18 16:30N 47°34' W 122°21'0 0.0
2017-Oct-18 16:00N 47°34' W 122°21'0 0.1
2017-Oct-18 15:30N 47°34' W 122°21'0 0.0
2017-Oct-18 15:00N 47°34' W 122°21'0 0.0
2017-Oct-18 14:00N 47°34' W 122°21'0 0.0
2017-Oct-18 13:30N 47°34' W 122°21'0 0.0
2017-Oct-18 13:00N 47°34' W 122°21'0 0.0
2017-Oct-18 12:30N 47°34' W 122°21'0 0.0
2017-Oct-18 12:00N 47°34' W 122°21'0 0.0
2017-Oct-18 11:30N 47°34' W 122°21'0 0.0
2017-Oct-18 11:00N 47°34' W 122°21'0 0.0
2017-Oct-18 10:30N 47°34' W 122°21'0 0.0
2017-Oct-18 10:00N 47°34' W 122°21'0 0.0
2017-Oct-18 09:30N 47°34' W 122°21'0 0.0
2017-Oct-18 09:00N 47°34' W 122°21'0 0.0
2017-Oct-18 08:30N 47°34' W 122°21'0 0.0
2017-Oct-18 08:00N 47°34' W 122°21'0 0.0
2017-Oct-18 07:30N 47°34' W 122°21'0 0.0
2017-Oct-18 07:00N 47°34' W 122°21'0 0.0
2017-Oct-18 06:30N 47°34' W 122°21'0 0.0
2017-Oct-18 06:00N 47°34' W 122°21'0 0.0
2017-Oct-18 05:30N 47°34' W 122°21'0 0.0
2017-Oct-18 05:00N 47°34' W 122°21'0 0.0
2017-Oct-18 04:30N 47°34' W 122°21'0 0.0
2017-Oct-18 04:00N 47°34' W 122°21'0 0.0
2017-Oct-18 03:30N 47°34' W 122°21'0 0.0
2017-Oct-18 03:00N 47°34' W 122°21'0 0.0
2017-Oct-18 02:30N 47°34' W 122°21'0 0.0
2017-Oct-18 02:00N 47°34' W 122°21'0 0.0
2017-Oct-18 01:30N 47°34' W 122°21'0 0.0
2017-Oct-18 01:00N 47°34' W 122°21'0 0.0
2017-Oct-18 00:30N 47°34' W 122°21'0 0.1
2017-Oct-18 00:01N 47°34' W 122°21'0 0.1
2017-Oct-17 23:30N 47°34' W 122°21'0 0.0
2017-Oct-17 23:00N 47°34' W 122°21'0 0.0
2017-Oct-17 22:30N 47°34' W 122°21'0 0.0
2017-Oct-17 22:00N 47°34' W 122°21'0 0.0
2017-Oct-17 21:30N 47°34' W 122°21'0 0.0
2017-Oct-17 21:00N 47°34' W 122°21'0 0.0
2017-Oct-17 20:30N 47°34' W 122°21'0 0.0
2017-Oct-17 20:00N 47°34' W 122°21'0 0.0
2017-Oct-17 19:30N 47°34' W 122°21'1 1.7
2017-Oct-17 19:00N 47°35' W 122°21'1 1.7
2017-Oct-17 18:30N 47°36' W 122°22'2 3.0
2017-Oct-17 18:00N 47°36' W 122°24'3 5.1
2017-Oct-17 17:31N 47°34' W 122°26'3 5.5
2017-Oct-17 17:01N 47°31' W 122°25'3 5.8
2017-Oct-17 16:31N 47°28' W 122°24'3 5.8
2017-Oct-17 16:01N 47°26' W 122°23'3 5.7
2017-Oct-17 15:30N 47°23' W 122°21'3 5.6
2017-Oct-17 15:00N 47°21' W 122°24'3 5.7
2017-Oct-17 14:30N 47°19' W 122°27'2 4.2
2017-Oct-17 14:00N 47°17' W 122°26'1 2.4
2017-Oct-17 13:30N 47°17' W 122°24'1 0.6
2017-Oct-17 12:37N 47°17' W 122°23'0 0.0
2017-Oct-17 12:18N 47°17' W 122°23'0 0.0
2017-Oct-17 11:53N 47°17' W 122°23'0 0.0
2017-Oct-17 11:25N 47°17' W 122°23'0 0.0
2017-Oct-17 11:00N 47°17' W 122°23'0 0.0
2017-Oct-17 10:26N 47°17' W 122°23'0 0.0
2017-Oct-17 09:58N 47°17' W 122°23'0 0.0
2017-Oct-17 09:11N 47°17' W 122°23'0 0.0
2017-Oct-17 09:00N 47°17' W 122°23'0 0.0
2017-Oct-17 08:30N 47°17' W 122°23'0 0.0
2017-Oct-17 08:00N 47°17' W 122°23'0 0.0
2017-Oct-17 07:26N 47°17' W 122°23'0 0.0
2017-Oct-17 07:00N 47°17' W 122°23'0 0.0
2017-Oct-17 06:30N 47°17' W 122°23'0 0.0
2017-Oct-17 06:00N 47°17' W 122°23'0 0.0
2017-Oct-17 05:29N 47°17' W 122°23'0 0.0
2017-Oct-17 04:56N 47°17' W 122°23'0 0.0
2017-Oct-17 04:28N 47°17' W 122°23'0 0.0
2017-Oct-17 04:00N 47°17' W 122°23'0 0.0
2017-Oct-17 03:14N 47°17' W 122°23'0 0.0
2017-Oct-17 02:59N 47°17' W 122°23'0 0.0
2017-Oct-17 02:30N 47°17' W 122°23'0 0.0
2017-Oct-17 01:04N 47°17' W 122°23'0 0.0
2017-Oct-17 00:51N 47°17' W 122°23'0 0.1
2017-Oct-17 00:16N 47°17' W 122°23'1 2.5
2017-Oct-16 23:58N 47°17' W 122°24'1 2.3
2017-Oct-16 23:30N 47°17' W 122°26'3 5.4
2017-Oct-16 23:00N 47°20' W 122°28'4 7.0
2017-Oct-16 22:30N 47°22' W 122°24'3 5.6
2017-Oct-16 22:00N 47°25' W 122°23'4 7.3
2017-Oct-16 21:30N 47°28' W 122°25'4 7.1
2017-Oct-16 21:00N 47°32' W 122°27'4 7.0
2017-Oct-16 20:31N 47°35' W 122°26'3 6.2
2017-Oct-16 20:00N 47°36' W 122°21'1 2.0
2017-Oct-16 19:30N 47°35' W 122°21'0 0.1
2017-Oct-16 19:00N 47°35' W 122°21'0 0.1
2017-Oct-16 18:30N 47°35' W 122°21'0 0.0
2017-Oct-16 18:00N 47°35' W 122°21'0 0.0
2017-Oct-16 17:30N 47°35' W 122°21'0 0.0
2017-Oct-16 17:00N 47°35' W 122°21'0 0.0
2017-Oct-16 16:30N 47°35' W 122°21'0 0.0
2017-Oct-16 16:00N 47°35' W 122°21'0 0.0
2017-Oct-16 15:30N 47°35' W 122°21'0 0.0
2017-Oct-16 15:00N 47°35' W 122°21'0 0.0
2017-Oct-16 14:30N 47°35' W 122°21'1 1.0
2017-Oct-16 13:30N 47°36' W 122°22'1 1.2
2017-Oct-16 13:00N 47°35' W 122°22'0 0.1
2017-Oct-16 12:30N 47°35' W 122°23'0 0.1
2017-Oct-16 12:00N 47°35' W 122°22'0 0.0
2017-Oct-16 11:30N 47°35' W 122°22'0 0.0
2017-Oct-16 11:00N 47°35' W 122°22'0 0.0
2017-Oct-16 10:30N 47°35' W 122°22'0 0.0
2017-Oct-16 10:00N 47°35' W 122°22'0 0.0
2017-Oct-16 09:30N 47°35' W 122°22'0 0.0
2017-Oct-16 09:00N 47°35' W 122°22'0 0.0
2017-Oct-16 08:30N 47°35' W 122°22'0 0.0
2017-Oct-16 08:00N 47°35' W 122°22'0 0.0
2017-Oct-16 07:30N 47°35' W 122°22'0 0.1
2017-Oct-16 07:00N 47°35' W 122°22'0 0.0
2017-Oct-16 06:30N 47°35' W 122°22'0 0.0
2017-Oct-16 06:00N 47°35' W 122°22'0 0.0
2017-Oct-16 05:30N 47°35' W 122°22'0 0.0
2017-Oct-16 05:00N 47°35' W 122°22'0 0.0
2017-Oct-16 04:30N 47°35' W 122°22'0 0.1
2017-Oct-16 04:00N 47°35' W 122°22'0 0.1
2017-Oct-16 03:31N 47°35' W 122°22'0 0.1
2017-Oct-16 03:00N 47°35' W 122°22'0 0.0
2017-Oct-16 02:30N 47°35' W 122°22'0 0.1
2017-Oct-16 02:00N 47°35' W 122°22'0 0.0
2017-Oct-16 01:30N 47°35' W 122°22'0 0.0
2017-Oct-16 01:00N 47°35' W 122°22'0 0.0
2017-Oct-16 00:30N 47°35' W 122°22'0 0.1
2017-Oct-16 00:00N 47°35' W 122°22'0 0.0
2017-Oct-15 23:30N 47°35' W 122°22'0 0.1
2017-Oct-15 23:00N 47°35' W 122°22'0 0.0
2017-Oct-15 22:30N 47°35' W 122°22'0 0.1
2017-Oct-15 22:00N 47°35' W 122°22'0 0.0
2017-Oct-15 21:30N 47°35' W 122°22'0 0.0
2017-Oct-15 21:00N 47°35' W 122°22'0 0.0
2017-Oct-15 20:30N 47°35' W 122°22'0 0.0
2017-Oct-15 20:00N 47°35' W 122°22'0 0.0
2017-Oct-15 19:30N 47°35' W 122°22'0 0.0
2017-Oct-15 19:00N 47°35' W 122°22'0 0.0
2017-Oct-15 18:30N 47°35' W 122°22'0 0.0
2017-Oct-15 18:00N 47°35' W 122°22'0 0.0
2017-Oct-15 17:30N 47°35' W 122°22'0 0.1
2017-Oct-15 17:00N 47°35' W 122°22'0 0.0
2017-Oct-15 16:30N 47°35' W 122°22'0 0.0
2017-Oct-15 16:00N 47°35' W 122°22'0 0.0
2017-Oct-15 15:30N 47°35' W 122°22'0 0.0
2017-Oct-15 15:00N 47°35' W 122°22'0 0.0
2017-Oct-15 14:00N 47°35' W 122°22'0 0.0
2017-Oct-15 13:30N 47°35' W 122°22'0 0.1
2017-Oct-15 13:00N 47°35' W 122°22'0 0.1
2017-Oct-15 12:30N 47°35' W 122°22'0 0.1
2017-Oct-15 12:00N 47°35' W 122°22'0 0.1
2017-Oct-15 11:30N 47°35' W 122°23'0 0.0
2017-Oct-15 11:00N 47°35' W 122°23'0 0.0
2017-Oct-15 10:30N 47°35' W 122°23'0 0.1
2017-Oct-15 10:00N 47°35' W 122°22'0 0.1
2017-Oct-15 09:30N 47°35' W 122°23'0 0.1
2017-Oct-15 09:00N 47°35' W 122°23'0 0.1
2017-Oct-15 08:30N 47°35' W 122°23'0 0.0
2017-Oct-15 08:00N 47°35' W 122°23'0 0.1
2017-Oct-15 07:30N 47°35' W 122°22'0 0.0
2017-Oct-15 07:00N 47°35' W 122°22'0 0.0
2017-Oct-15 06:30N 47°35' W 122°22'0 0.0
2017-Oct-15 06:00N 47°35' W 122°22'0 0.0
2017-Oct-15 05:30N 47°35' W 122°22'0 0.0
2017-Oct-15 05:00N 47°35' W 122°22'0 0.1
2017-Oct-15 04:30N 47°35' W 122°22'0 0.0
2017-Oct-15 04:00N 47°35' W 122°22'0 0.1
2017-Oct-15 03:30N 47°35' W 122°23'0 0.1
2017-Oct-15 03:00N 47°35' W 122°22'0 0.1
2017-Oct-15 02:30N 47°35' W 122°22'0 0.0
2017-Oct-15 02:00N 47°35' W 122°22'0 0.0
2017-Oct-15 01:30N 47°35' W 122°22'0 0.8
2017-Oct-15 01:00N 47°35' W 122°22'1 1.5
2017-Oct-15 00:30N 47°35' W 122°21'0 0.2
2017-Oct-15 00:00N 47°35' W 122°21'0 0.0
2017-Oct-14 23:30N 47°35' W 122°21'0 0.0
2017-Oct-14 23:00N 47°35' W 122°21'0 0.0
2017-Oct-14 22:30N 47°35' W 122°21'0 0.0
2017-Oct-14 22:00N 47°35' W 122°21'1 2.1
2017-Oct-14 21:30N 47°34' W 122°21'0 0.0
2017-Oct-14 21:00N 47°34' W 122°21'0 0.0
2017-Oct-14 20:30N 47°34' W 122°21'0 0.0
2017-Oct-14 20:00N 47°34' W 122°21'0 0.0
2017-Oct-14 19:30N 47°34' W 122°21'0 0.0
2017-Oct-14 19:00N 47°34' W 122°21'0 0.0
2017-Oct-14 18:30N 47°34' W 122°21'0 0.0
2017-Oct-14 18:00N 47°34' W 122°21'0 0.0
2017-Oct-14 17:30N 47°34' W 122°21'0 0.0
2017-Oct-14 17:00N 47°34' W 122°21'0 0.0
2017-Oct-14 16:30N 47°34' W 122°21'1 2.1
2017-Oct-14 16:01N 47°35' W 122°21'0 0.0
2017-Oct-14 15:30N 47°35' W 122°21'0 0.0
2017-Oct-14 15:00N 47°35' W 122°21'0 0.0
2017-Oct-14 14:30N 47°35' W 122°21'0 0.0
2017-Oct-14 14:00N 47°35' W 122°21'0 0.0
2017-Oct-14 13:30N 47°35' W 122°21'0 0.0
2017-Oct-14 13:00N 47°35' W 122°21'0 0.0
2017-Oct-14 12:30N 47°35' W 122°21'0 0.0
2017-Oct-14 12:00N 47°35' W 122°21'0 0.0
2017-Oct-14 11:30N 47°35' W 122°21'0 0.0
2017-Oct-14 11:00N 47°35' W 122°21'1 1.0
2017-Oct-14 10:31N 47°36' W 122°21'0 1.0
2017-Oct-14 10:00N 47°36' W 122°22'3 5.4
2017-Oct-14 09:31N 47°37' W 122°26'3 5.4
2017-Oct-14 09:01N 47°39' W 122°28'3 5.4
2017-Oct-14 08:30N 47°42' W 122°28'3 5.7
2017-Oct-14 08:00N 47°45' W 122°27'3 5.3
2017-Oct-14 07:30N 47°47' W 122°27'3 5.6
2017-Oct-14 07:00N 47°50' W 122°28'3 5.8
2017-Oct-14 06:30N 47°53' W 122°29'3 5.9
2017-Oct-14 06:00N 47°55' W 122°31'4 8.0
2017-Oct-14 05:29N 47°58' W 122°36'4 7.9
2017-Oct-14 05:00N 48°02' W 122°39'4 7.7
2017-Oct-14 04:29N 48°05' W 122°40'8 8.5
2017-Oct-14 03:31N 48°11' W 122°49'0 8.5
2017-Oct-14 03:28N 48°11' W 122°50'4 7.9
2017-Oct-14 03:00N 48°11' W 122°55'4 7.4
2017-Oct-14 02:30N 48°12' W 123°01'4 7.5
2017-Oct-14 01:59N 48°12' W 123°06'4 7.4
2017-Oct-14 01:24N 48°11' W 123°13'2 6.2
2017-Oct-14 01:00N 48°10' W 123°16'3 6.2
2017-Oct-14 00:29N 48°09' W 123°21'3 1.1
2017-Oct-13 21:49N 48°08' W 123°25'0 0.0
2017-Oct-13 21:22N 48°08' W 123°25'0 0.1
2017-Oct-13 20:58N 48°08' W 123°25'0 0.1
2017-Oct-13 20:25N 48°08' W 123°25'0 0.1
2017-Oct-13 19:58N 48°08' W 123°25'0 0.1
2017-Oct-13 19:25N 48°08' W 123°25'0 0.0
2017-Oct-13 18:58N 48°08' W 123°25'0 0.0
2017-Oct-13 18:28N 48°08' W 123°25'0 0.0
2017-Oct-13 17:58N 48°08' W 123°25'0 0.0
2017-Oct-13 17:28N 48°08' W 123°25'0 0.1
2017-Oct-13 16:58N 48°08' W 123°25'0 0.0
2017-Oct-13 16:22N 48°08' W 123°25'0 0.0
2017-Oct-13 15:52N 48°08' W 123°25'0 0.0
2017-Oct-13 15:28N 48°08' W 123°25'0 0.1
2017-Oct-13 14:58N 48°08' W 123°25'0 0.0
2017-Oct-13 14:22N 48°08' W 123°25'0 0.0
2017-Oct-13 13:58N 48°08' W 123°25'0 0.0
2017-Oct-13 13:30N 48°08' W 123°25'0 0.1
2017-Oct-13 13:00N 48°08' W 123°25'1 1.1
2017-Oct-13 12:31N 48°08' W 123°24'2 3.5
2017-Oct-13 12:00N 48°09' W 123°22'4 7.8
2017-Oct-13 11:29N 48°10' W 123°16'4 8.0
2017-Oct-13 11:00N 48°12' W 123°11'4 7.5
2017-Oct-13 10:28N 48°13' W 123°05'4 7.9
2017-Oct-13 09:59N 48°13' W 122°60'4 7.9
2017-Oct-13 09:29N 48°12' W 122°54'8 8.5
2017-Oct-13 08:29N 48°09' W 122°42'4 8.3
2017-Oct-13 08:00N 48°06' W 122°38'4 8.3
2017-Oct-13 07:29N 48°01' W 122°37'4 7.8
2017-Oct-13 07:00N 47°58' W 122°34'4 7.7
2017-Oct-13 06:30N 47°56' W 122°30'3 6.9
2017-Oct-13 06:00N 47°53' W 122°28'4 7.4
2017-Oct-13 05:30N 47°49' W 122°27'4 7.3
2017-Oct-13 05:00N 47°45' W 122°26'4 7.1
2017-Oct-13 04:30N 47°42' W 122°27'3 7.0
2017-Oct-13 04:00N 47°38' W 122°27'4 7.2
2017-Oct-13 03:30N 47°35' W 122°26'3 6.8
2017-Oct-13 03:00N 47°31' W 122°25'3 6.8
2017-Oct-13 02:30N 47°28' W 122°24'3 7.0
2017-Oct-13 02:00N 47°25' W 122°22'3 5.8
2017-Oct-13 01:30N 47°22' W 122°22'3 6.7
2017-Oct-13 01:00N 47°20' W 122°26'2 5.0
2017-Oct-13 00:30N 47°17' W 122°27'1 1.2
2017-Oct-13 00:00N 47°17' W 122°26'1 2.3
2017-Oct-12 23:30N 47°16' W 122°25'0 0.0
2017-Oct-12 23:00N 47°16' W 122°25'0 0.0
2017-Oct-12 22:30N 47°16' W 122°25'0 0.0
2017-Oct-12 22:00N 47°16' W 122°25'0 0.0
2017-Oct-12 21:30N 47°16' W 122°25'0 0.0
2017-Oct-12 21:00N 47°16' W 122°25'0 0.0
2017-Oct-12 20:30N 47°16' W 122°25'0 0.0
2017-Oct-12 20:00N 47°16' W 122°25'0 0.0
2017-Oct-12 19:30N 47°16' W 122°25'0 0.0
2017-Oct-12 19:00N 47°16' W 122°25'0 0.0
2017-Oct-12 18:30N 47°16' W 122°25'0 0.0
2017-Oct-12 18:00N 47°16' W 122°25'0 0.0
2017-Oct-12 17:30N 47°16' W 122°25'0 0.0
2017-Oct-12 17:00N 47°16' W 122°25'0 0.0
2017-Oct-12 16:30N 47°16' W 122°25'0 0.0
2017-Oct-12 16:00N 47°16' W 122°25'0 0.0
2017-Oct-12 15:30N 47°16' W 122°25'0 0.0
2017-Oct-12 15:00N 47°16' W 122°25'0 0.0
2017-Oct-12 14:31N 47°16' W 122°25'0 0.0
2017-Oct-12 14:00N 47°16' W 122°25'0 0.0
2017-Oct-12 13:30N 47°16' W 122°25'0 0.1
2017-Oct-12 13:00N 47°16' W 122°25'0 0.9
2017-Oct-12 12:30N 47°16' W 122°25'1 2.1
2017-Oct-12 12:00N 47°17' W 122°24'0 0.8
2017-Oct-12 11:31N 47°17' W 122°23'0 0.0
2017-Oct-12 11:00N 47°17' W 122°23'0 0.0
2017-Oct-12 10:31N 47°17' W 122°23'0 0.0
2017-Oct-12 10:00N 47°17' W 122°23'0 0.0
2017-Oct-12 09:30N 47°17' W 122°23'0 0.0
2017-Oct-12 09:00N 47°17' W 122°23'0 0.0
2017-Oct-12 08:30N 47°17' W 122°23'0 0.0
2017-Oct-12 08:00N 47°17' W 122°23'0 0.5
2017-Oct-12 07:30N 47°17' W 122°24'1 2.9
2017-Oct-12 07:00N 47°17' W 122°26'1 1.2
2017-Oct-12 06:30N 47°18' W 122°26'3 5.0
2017-Oct-12 06:00N 47°20' W 122°27'3 6.3
2017-Oct-12 05:30N 47°22' W 122°24'2 4.8
2017-Oct-12 05:00N 47°24' W 122°23'3 6.4
2017-Oct-12 04:30N 47°27' W 122°25'3 6.5
2017-Oct-12 04:00N 47°30' W 122°26'3 6.2
2017-Oct-12 03:30N 47°33' W 122°27'3 6.3
2017-Oct-12 03:00N 47°36' W 122°24'2 4.3
2017-Oct-12 02:30N 47°36' W 122°21'0 0.5
2017-Oct-12 01:58N 47°36' W 122°21'1 2.9
2017-Oct-12 01:30N 47°34' W 122°21'1 2.3
2017-Oct-12 00:56N 47°36' W 122°21'0 0.0
2017-Oct-12 00:29N 47°36' W 122°21'0 0.0
2017-Oct-11 23:58N 47°36' W 122°21'0 0.0
2017-Oct-11 23:29N 47°36' W 122°21'0 0.0
2017-Oct-11 22:59N 47°36' W 122°21'0 0.0
2017-Oct-11 22:29N 47°36' W 122°21'0 0.0
2017-Oct-11 21:58N 47°36' W 122°21'0 0.0
2017-Oct-11 21:29N 47°36' W 122°21'0 0.0
2017-Oct-11 20:58N 47°36' W 122°21'0 0.0
2017-Oct-11 20:28N 47°36' W 122°21'0 0.0
2017-Oct-11 19:58N 47°36' W 122°21'0 0.0
2017-Oct-11 19:28N 47°36' W 122°21'0 0.0
2017-Oct-11 19:00N 47°36' W 122°21'1 1.4
2017-Oct-11 18:30N 47°35' W 122°21'1 1.4
2017-Oct-11 18:00N 47°36' W 122°21'1 1.8
2017-Oct-11 17:30N 47°36' W 122°22'2 4.0
2017-Oct-11 17:00N 47°35' W 122°25'26 1.5
2017-Oct-11 00:00N 48°00' W 122°38'3 6.6
2017-Oct-10 23:29N 48°03' W 122°39'4 6.4
2017-Oct-10 22:47N 48°07' W 122°42'3 6.4
2017-Oct-10 22:17N 48°10' W 122°46'2 5.2
2017-Oct-10 21:58N 48°11' W 122°47'2 4.8
2017-Oct-10 21:28N 48°13' W 122°49'3 5.4
2017-Oct-10 20:50N 48°16' W 122°48'2 5.7
2017-Oct-10 20:28N 48°18' W 122°47'3 6.5
2017-Oct-10 20:00N 48°21' W 122°46'4 7.2
2017-Oct-10 19:30N 48°25' W 122°45'4 7.0
2017-Oct-10 19:00N 48°28' W 122°45'3 6.7
2017-Oct-10 18:30N 48°31' W 122°42'3 6.5
2017-Oct-10 18:00N 48°34' W 122°40'3 6.0
2017-Oct-10 17:30N 48°37' W 122°38'3 5.7
2017-Oct-10 17:00N 48°37' W 122°34'1 1.8
2017-Oct-10 16:30N 48°37' W 122°33'0 0.0
2017-Oct-10 16:00N 48°37' W 122°33'0 0.1
2017-Oct-10 15:30N 48°37' W 122°33'0 0.0
2017-Oct-10 14:00N 48°37' W 122°33'0 0.0
2017-Oct-10 13:18N 48°37' W 122°33'0 0.0
2017-Oct-10 12:54N 48°37' W 122°33'0 0.0
2017-Oct-10 12:30N 48°37' W 122°33'0 0.1
2017-Oct-10 11:51N 48°37' W 122°33'0 0.2
2017-Oct-10 11:30N 48°37' W 122°33'0 0.1
2017-Oct-10 11:00N 48°37' W 122°33'0 0.7
2017-Oct-10 10:30N 48°37' W 122°33'2 4.6
2017-Oct-10 10:00N 48°35' W 122°34'2 4.5
2017-Oct-10 09:30N 48°33' W 122°34'2 3.2
2017-Oct-10 09:00N 48°31' W 122°35'0 0.1
2017-Oct-10 08:30N 48°31' W 122°35'0 0.0
2017-Oct-10 08:00N 48°31' W 122°35'0 0.0
2017-Oct-10 07:30N 48°31' W 122°35'0 0.0
2017-Oct-10 07:00N 48°31' W 122°35'0 0.0
2017-Oct-10 06:30N 48°31' W 122°35'0 0.0
2017-Oct-10 06:00N 48°31' W 122°35'0 0.1
2017-Oct-10 05:30N 48°31' W 122°35'0 0.0
2017-Oct-10 05:00N 48°31' W 122°35'0 0.0
2017-Oct-10 04:30N 48°31' W 122°35'0 0.0
2017-Oct-10 04:00N 48°31' W 122°35'0 0.1
2017-Oct-10 03:30N 48°31' W 122°35'0 0.0
2017-Oct-10 03:00N 48°31' W 122°35'0 0.0
2017-Oct-10 02:30N 48°31' W 122°35'0 0.1
2017-Oct-10 02:00N 48°31' W 122°35'0 0.2
2017-Oct-10 01:30N 48°31' W 122°35'0 0.1
2017-Oct-10 01:00N 48°31' W 122°35'1 1.4
2017-Oct-10 00:30N 48°32' W 122°35'0 0.6
2017-Oct-10 00:00N 48°32' W 122°35'0 0.6
2017-Oct-09 23:30N 48°31' W 122°35'2 4.8
2017-Oct-09 23:01N 48°31' W 122°39'3 5.0
2017-Oct-09 22:30N 48°31' W 122°43'2 4.6
2017-Oct-09 22:00N 48°29' W 122°44'2 3.5
2017-Oct-09 21:30N 48°27' W 122°44'2 4.2
2017-Oct-09 21:00N 48°25' W 122°44'7 4.3
2017-Oct-09 19:29N 48°19' W 122°46'2 4.0
2017-Oct-09 18:56N 48°17' W 122°47'2 4.9
2017-Oct-09 18:30N 48°15' W 122°48'10 7.3
2017-Oct-09 17:11N 48°07' W 122°39'2 6.6
2017-Oct-09 16:52N 48°05' W 122°38'3 6.9
2017-Oct-09 16:27N 48°02' W 122°37'3 6.1
2017-Oct-09 15:59N 47°59' W 122°36'3 6.8
2017-Oct-09 15:30N 47°57' W 122°32'3 5.9
2017-Oct-09 15:00N 47°55' W 122°29'3 5.8
2017-Oct-09 14:30N 47°52' W 122°28'3 6.4
2017-Oct-09 14:00N 47°49' W 122°27'3 6.6
2017-Oct-09 13:30N 47°46' W 122°26'3 6.3
2017-Oct-09 13:00N 47°43' W 122°26'3 5.9
2017-Oct-09 12:30N 47°40' W 122°27'3 6.1
2017-Oct-09 12:00N 47°37' W 122°27'3 6.1
2017-Oct-09 11:31N 47°34' W 122°26'3 5.6
2017-Oct-09 11:00N 47°31' W 122°25'3 5.9
2017-Oct-09 10:30N 47°28' W 122°24'3 6.5
2017-Oct-09 10:00N 47°25' W 122°22'3 5.6
2017-Oct-09 09:30N 47°22' W 122°21'3 6.4
2017-Oct-09 09:00N 47°20' W 122°25'3 5.8
2017-Oct-09 08:30N 47°18' W 122°27'1 2.4
2017-Oct-09 08:00N 47°17' W 122°25'1 2.0
2017-Oct-09 07:27N 47°17' W 122°24'0 1.0
2017-Oct-09 07:00N 47°17' W 122°23'0 0.1
2017-Oct-09 06:30N 47°17' W 122°23'0 0.1
2017-Oct-09 06:00N 47°17' W 122°23'0 0.0
2017-Oct-09 05:30N 47°17' W 122°23'0 0.0
2017-Oct-09 05:00N 47°17' W 122°23'0 0.0
2017-Oct-09 04:30N 47°17' W 122°23'0 0.0
2017-Oct-09 04:00N 47°17' W 122°23'0 0.1
2017-Oct-09 03:30N 47°17' W 122°23'0 0.1
2017-Oct-09 03:00N 47°17' W 122°23'0 0.0
2017-Oct-09 02:30N 47°17' W 122°23'0 0.1
2017-Oct-09 02:00N 47°17' W 122°23'0 0.0
2017-Oct-09 01:30N 47°17' W 122°23'0 0.1
2017-Oct-09 01:00N 47°17' W 122°23'1 1.0
2017-Oct-09 00:30N 47°17' W 122°24'2 3.4
2017-Oct-09 00:00N 47°17' W 122°26'1 3.0
2017-Oct-08 23:30N 47°19' W 122°28'4 7.0
2017-Oct-08 23:00N 47°21' W 122°25'3 6.1
2017-Oct-08 22:30N 47°24' W 122°23'3 7.0
2017-Oct-08 22:00N 47°27' W 122°25'3 6.8
2017-Oct-08 21:31N 47°30' W 122°26'3 6.9
2017-Oct-08 21:00N 47°34' W 122°26'3 5.8
2017-Oct-08 20:30N 47°36' W 122°23'1 1.3
2017-Oct-08 20:00N 47°35' W 122°22'0 0.1
2017-Oct-08 19:30N 47°35' W 122°22'0 0.0
2017-Oct-08 19:00N 47°35' W 122°22'0 0.1
2017-Oct-08 18:30N 47°35' W 122°22'  

Dump ship's entire track history